Latest Weather Observations for Albion Park

IDN60801

Issued at 8:02 am EDT Sunday 14 February 2016 (issued every 30 minutes, with the page automatically refreshed every 10 minutes)

About weather observations | Map of weather stations | Latest weather observations for NSW | Other Formats
Station Details ID: 068241 Name: WOLLONGONG AIRPORT Lat: -34.56 Lon: 150.79 Height: 8.0 m
Data from the previous 72 hours. | See also: Recent months at Albion Park
Date/Time
EDT
Temp
°C
App
Temp
°C
Dew
Point
Rel
Hum
%
Delta-T
°C
Wind Press
QNH
hPa
Press
MSL
hPa
Rain
since 9 am
mm
Dir
 
Spd
km/h
Gust
km/h
Spd
kts
Gust
kts
14/08:00am 20.6 24.4 20.1 97 0.3 CALM 0 0 0 0 1007.1 1007.1 0.0
14/07:30am 19.5 21.7 19.3 99 0.1 WNW 6 9 3 5 1007.0 1007.0 0.0
14/07:00am 18.3 21.1 18.0 98 0.2 CALM 0 0 0 0 1007.1 1007.1 0.0
14/06:30am 18.0 20.2 17.5 97 0.3 WNW 2 6 1 3 1007.0 1007.0 0.0
14/06:00am 18.2 20.8 17.6 96 0.4 CALM 0 4 0 2 1006.8 1006.8 0.0
14/05:30am 18.5 20.5 17.9 96 0.4 WNW 4 7 2 4 1006.7 1006.7 0.0
14/05:00am 18.7 21.1 17.9 95 0.5 W 2 9 1 5 1006.8 1006.8 0.0
14/04:30am 19.4 21.7 18.6 95 0.5 WNW 4 9 2 5 1006.9 1006.9 0.0
14/04:00am 19.8 22.2 18.8 94 0.6 NW 4 9 2 5 1007.0 1007.0 0.0
14/03:30am 20.1 22.9 18.9 93 0.8 WNW 2 7 1 4 1007.2 1007.2 0.0
14/03:00am 20.4 23.0 19.2 93 0.8 WNW 4 6 2 3 1007.5 1007.5 0.0
14/02:30am 20.4 23.5 19.6 95 0.5 W 2 7 1 4 1007.7 1007.7 0.0
14/02:00am 20.1 21.7 19.1 94 0.6 W 9 11 5 6 1008.0 1008.0 0.0
14/01:30am 20.5 22.8 19.5 94 0.6 W 6 6 3 3 1008.4 1008.4 0.0
14/01:00am 20.9 24.1 19.7 93 0.8 W 2 7 1 4 1008.7 1008.7 0.0
14/12:30am 20.8 24.2 20.1 96 0.4 SSW 2 7 1 4 1009.1 1009.1 0.0
14/12:00am 20.4 22.8 19.6 95 0.5 SW 6 9 3 5 1009.4 1009.4 0.0
 
Date/Time
EDT
Temp
°C
App
Temp
°C
Dew
Point
Rel
Hum
%
Delta-T
°C
Wind Press
QNH
hPa
Press
MSL
hPa
Rain
since 9 am
mm
Dir
 
Spd
km/h
Gust
km/h
Spd
kts
Gust
kts
13/11:30pm 20.8 23.6 19.6 93 0.8 WNW 4 7 2 4 1009.5 1009.5 0.0
13/11:00pm 21.3 23.7 20.1 93 0.8 WNW 7 9 4 5 1009.8 1009.8 0.0
13/10:30pm 21.8 24.3 20.3 91 1.0 NW 7 9 4 5 1010.1 1010.1 0.0
13/10:00pm 22.2 25.3 20.3 89 1.2 NW 4 7 2 4 1010.2 1010.2 0.0
13/09:30pm 22.6 25.9 19.9 85 1.7 NW 2 6 1 3 1010.1 1010.1 0.0
13/09:00pm 24.2 26.7 20.3 79 2.5 NNW 7 9 4 5 1009.9 1009.9 0.0
13/08:30pm 24.5 26.7 20.4 78 2.7 N 9 15 5 8 1009.7 1009.7 0.0
13/08:00pm 25.0 26.3 20.9 78 2.7 NNE 15 24 8 13 1009.4 1009.4 0.0
13/07:30pm 25.3 26.2 20.8 76 3.0 NNE 17 26 9 14 1009.2 1009.2 0.0
13/07:00pm 25.7 26.0 20.7 74 3.3 NE 20 30 11 16 1009.0 1009.0 0.0
13/06:30pm 26.1 26.4 20.7 72 3.5 NE 20 32 11 17 1009.0 1009.0 0.0
13/06:00pm 26.8 27.3 21.1 71 3.8 NE 20 30 11 16 1009.1 1009.1 0.0
13/05:30pm 27.0 26.4 20.6 68 4.2 NE 24 33 13 18 1009.1 1009.1 0.0
13/05:00pm 27.2 26.5 21.0 69 4.1 ENE 26 35 14 19 1009.5 1009.5 0.0
13/04:30pm 27.6 27.7 21.2 68 4.3 NE 22 32 12 17 1009.7 1009.7 0.0
13/04:00pm 27.2 25.5 20.5 67 4.4 NE 30 37 16 20 1010.0 1010.0 0.0
13/03:30pm 27.6 26.5 20.2 64 4.8 NE 26 32 14 17 1010.3 1010.3 0.0
13/03:00pm 27.5 26.4 21.1 68 4.2 NE 28 37 15 20 1010.6 1010.6 0.0
13/02:30pm 27.7 26.7 21.3 68 4.3 ENE 28 35 15 19 1011.0 1011.0 0.0
13/02:00pm 27.7 26.6 21.0 67 4.4 ENE 28 35 15 19 1011.4 1011.4 0.0
13/01:30pm 27.7 25.8 21.0 67 4.4 NE 32 39 17 21 1011.7 1011.7 0.0
13/01:00pm 27.6 26.2 21.2 68 4.3 NE 30 39 16 21 1012.0 1012.0 0.0
13/12:30pm 27.7 26.7 21.3 68 4.3 NE 28 37 15 20 1012.3 1012.3 0.0
13/12:00pm 27.7 26.5 20.8 66 4.6 NE 28 35 15 19 1012.6 1012.6 0.0
13/11:30am 28.1 27.8 20.4 63 5.1 ENE 22 28 12 15 1013.0 1013.0 0.0
13/11:00am 28.0 28.4 19.8 61 5.3 NNE 17 26 9 14 1013.1 1013.1 0.0
13/10:30am 27.7 29.5 19.5 61 5.3 NNW 9 15 5 8 1013.3 1013.3 0.0
13/10:00am 26.2 27.3 18.1 61 5.1 NNW 9 19 5 10 1013.5 1013.5 0.0
13/09:30am 25.9 27.7 19.5 68 4.1 NNW 9 17 5 9 1013.6 1013.6 0.0
13/09:00am 25.0 25.4 19.1 70 3.8 N 15 20 8 11 1013.8 1013.8 0.0
13/08:30am 23.3 24.8 19.0 77 2.7 NNW 9 13 5 7 1013.9 1013.9 0.0
13/08:00am 21.1 23.8 18.7 86 1.5 W 2 7 1 4 1014.0 1014.0 0.0
13/07:30am 20.2 23.9 20.0 99 0.1 CALM 0 0 0 0 1013.8 1013.8 0.0
13/07:00am 18.3 20.4 18.1 99 0.1 WSW 4 6 2 3 1013.8 1013.8 0.0
13/06:30am 17.1 19.3 16.6 97 0.3 CALM 0 0 0 0 1013.6 1013.6 0.0
13/06:00am 17.5 19.9 17.0 97 0.3 CALM 0 0 0 0 1013.5 1013.5 0.0
13/05:30am 17.8 20.3 17.3 97 0.3 CALM 0 0 0 0 1013.4 1013.4 0.0
13/05:00am 18.2 20.9 17.7 97 0.3 CALM 0 0 0 0 1013.4 1013.4 0.0
13/04:30am 18.5 21.3 17.9 96 0.4 CALM 0 0 0 0 1013.6 1013.6 0.0
13/04:00am 18.5 21.3 17.9 96 0.4 CALM 0 0 0 0 1013.7 1013.7 0.0
13/03:30am 18.9 21.8 18.2 96 0.4 CALM 0 0 0 0 1013.9 1013.9 0.0
13/03:00am 19.0 21.9 18.2 95 0.5 CALM 0 0 0 0 1014.1 1014.1 0.0
13/02:30am 19.5 21.5 18.7 95 0.5 WSW 6 7 3 4 1014.2 1014.2 0.0
13/02:00am 20.1 22.9 18.9 93 0.8 W 2 6 1 3 1014.4 1014.4 0.0
13/01:30am 20.5 22.3 19.5 94 0.6 WNW 9 9 5 5 1014.6 1014.6 0.0
13/01:00am 20.9 23.1 19.6 92 0.8 WNW 7 11 4 6 1015.0 1015.0 0.0
13/12:30am 21.6 25.2 19.7 89 1.2 CALM 0 0 0 0 1015.2 1015.2 0.0
13/12:00am 22.3 25.3 20.0 87 1.5 W 4 6 2 3 1015.5 1015.5 0.0
 
Date/Time
EDT
Temp
°C
App
Temp
°C
Dew
Point
Rel
Hum
%
Delta-T
°C
Wind Press
QNH
hPa
Press
MSL
hPa
Rain
since 9 am
mm
Dir
 
Spd
km/h
Gust
km/h
Spd
kts
Gust
kts
12/11:30pm 23.0 25.5 20.3 85 1.7 WNW 7 11 4 6 1015.6 1015.6 0.0
12/11:26pm 23.1 25.2 20.1 83 1.9 NW 9 11 5 6 1015.6 1015.6 0.0
12/11:00pm 23.9 25.3 20.4 81 2.3 N 13 19 7 10 1015.5 1015.5 0.0
12/10:56pm 23.9 25.3 20.4 81 2.3 N 13 19 7 10 1015.6 1015.6 0.0
12/10:30pm 24.1 25.9 20.4 80 2.4 N 11 17 6 9 1015.8 1015.8 0.0
12/10:07pm 24.3 25.8 20.6 80 2.4 N 13 17 7 9 1015.9 1015.9 0.0
12/10:00pm 24.2 26.1 20.5 80 2.4 N 11 17 6 9 1015.9 1015.9 0.0
12/09:34pm 24.3 25.8 20.6 80 2.4 N 13 19 7 10 1015.9 1015.9 0.0
12/09:30pm 24.4 26.0 20.7 80 2.4 N 13 19 7 10 1015.9 1015.9 0.0
12/09:00pm 24.5 25.8 20.8 80 2.4 NNE 15 24 8 13 1015.6 1015.6 0.0
12/08:56pm 24.5 25.3 20.6 79 2.5 NNE 17 24 9 13 1015.4 1015.4 0.0
12/08:55pm 24.5 25.3 20.6 79 2.5 NNE 17 24 9 13 1015.4 1015.4 0.0
12/08:44pm 24.5 25.3 20.6 79 2.5 NE 17 26 9 14 1015.4 1015.4 0.0
12/08:30pm 24.4 26.4 20.7 80 2.4 NNE 11 17 6 9 1015.2 1015.2 0.0
12/08:29pm 24.5 26.5 20.8 80 2.4 NNE 11 17 6 9 1015.2 1015.2 0.0
12/08:00pm 24.6 26.2 20.7 79 2.5 NNE 13 20 7 11 1015.2 1015.2 0.0
12/07:30pm 24.8 25.7 20.9 79 2.6 NE 17 22 9 12 1014.9 1014.9 0.0
12/07:19pm 24.8 25.7 20.9 79 2.6 NE 17 24 9 13 1014.7 1014.7 0.0
12/07:00pm 24.9 25.3 20.6 77 2.8 NE 19 24 10 13 1014.5 1014.5 0.0
12/06:30pm 25.9 26.2 20.7 73 3.4 NE 20 28 11 15 1014.2 1014.2 0.0
12/06:00pm 26.3 26.1 19.7 67 4.3 NE 20 24 11 13 1014.2 1014.2 0.0
12/05:30pm 26.9 27.1 20.5 68 4.2 NE 20 26 11 14 1014.1 1014.1 0.0
12/05:00pm 26.9 26.7 19.8 65 4.6 NE 20 26 11 14 1014.1 1014.1 0.0
12/04:30pm 26.9 26.5 19.3 63 4.9 NE 20 26 11 14 1014.2 1014.2 0.0
12/04:00pm 26.6 26.1 19.2 64 4.8 ENE 20 26 11 14 1014.5 1014.5 0.0
12/03:30pm 27.4 27.7 20.7 67 4.4 NE 20 28 11 15 1014.7 1014.7 0.0
12/03:00pm 26.9 26.8 20.0 66 4.5 ENE 20 28 11 15 1015.0 1015.0 0.0
12/02:30pm 26.3 26.9 20.2 69 4.0 ENE 17 26 9 14 1015.2 1015.2 0.0
12/02:00pm 27.5 28.5 21.8 71 3.8 NE 19 24 10 13 1015.2 1015.2 0.0
12/01:30pm 26.9 27.2 20.3 67 4.3 NE 19 24 10 13 1015.4 1015.4 0.0
12/01:00pm 26.5 26.8 20.3 68 4.1 NE 19 24 10 13 1015.7 1015.7 0.0
12/12:30pm 26.9 27.4 21.2 71 3.8 ENE 20 26 11 14 1016.0 1016.0 0.0
12/12:00pm 26.8 27.0 20.2 67 4.3 NE 19 24 10 13 1016.4 1016.4 0.0
12/11:30am 26.8 27.5 20.4 68 4.2 NE 17 20 9 11 1016.5 1016.5 0.0
12/11:00am 26.7 28.0 20.1 67 4.3 ENE 13 19 7 10 1016.6 1016.6 0.0
12/10:30am 26.5 27.8 20.1 68 4.2 ENE 13 17 7 9 1016.7 1016.7 0.0
12/10:00am 25.9 27.7 19.5 68 4.1 NE 9 13 5 7 1016.9 1016.9 0.0
12/09:30am 25.6 28.0 19.7 70 3.8 NE 6 11 3 6 1017.1 1017.1 0.0
12/09:00am 23.3 26.3 19.2 78 2.6 WNW 2 7 1 4 1017.1 1017.1 0.2
12/08:30am 21.6 25.5 20.4 93 0.8 CALM 0 0 0 0 1017.0 1017.0 0.2
12/08:00am 20.3 22.8 19.8 97 0.3 WNW 6 7 3 4 1016.7 1016.7 0.2
12/07:30am 19.2 21.3 19.0 99 0.1 W 6 7 3 4 1016.4 1016.4 0.2
12/07:00am 17.8 20.4 17.6 99 0.1 CALM 0 0 0 0 1016.1 1016.1 0.2
12/06:30am 17.7 19.2 17.5 99 0.1 W 6 7 3 4 1015.9 1015.9 0.2
12/06:00am 17.8 18.7 17.6 99 0.1 W 9 11 5 6 1015.5 1015.5 0.0
12/05:30am 18.2 20.6 18.0 99 0.1 W 2 7 1 4 1015.2 1015.2 0.0
12/05:00am 18.2 20.2 17.9 98 0.2 W 4 7 2 4 1015.0 1015.0 0.0
12/04:30am 18.5 19.4 18.3 99 0.1 W 11 13 6 7 1015.0 1015.0 0.0
12/04:00am 18.6 20.2 18.3 98 0.2 WSW 7 7 4 4 1015.1 1015.1 0.0
12/03:30am 18.7 20.5 18.4 98 0.2 WNW 6 7 3 4 1015.2 1015.2 0.0
12/03:00am 19.2 21.9 18.7 97 0.3 WSW 2 6 1 3 1015.4 1015.4 0.0
12/02:30am 19.3 21.1 18.8 97 0.3 WSW 7 9 4 5 1015.4 1015.4 0.0
12/02:00am 19.6 20.9 19.3 98 0.2 W 11 13 6 7 1015.3 1015.3 0.0
12/01:30am 19.6 20.7 18.9 96 0.4 W 11 13 6 7 1015.6 1015.6 0.0
12/01:00am 20.5 24.1 19.7 95 0.5 CALM 0 0 0 0 1016.1 1016.1 0.0
12/12:30am 20.8 22.0 20.0 95 0.5 WSW 13 15 7 8 1016.5 1016.5 0.0
12/12:04am 21.2 24.2 20.0 93 0.8 NW 4 9 2 5 1016.4 1016.4 0.0
12/12:00am 21.5 25.4 20.3 93 0.8 CALM 0 9 0 5 1016.4 1016.4 0.0
 
Date/Time
EDT
Temp
°C
App
Temp
°C
Dew
Point
Rel
Hum
%
Delta-T
°C
Wind Press
QNH
hPa
Press
MSL
hPa
Rain
since 9 am
mm
Dir
 
Spd
km/h
Gust
km/h
Spd
kts
Gust
kts
11/11:30pm 21.8 24.5 20.3 91 1.0 NNW 6 7 3 4 1016.6 1016.6 0.0
11/11:01pm 21.8 24.9 19.5 87 1.5 W 2 7 1 4 1016.3 1016.3 0.0
11/11:00pm 21.8 24.5 19.5 87 1.5 W 4 9 2 5 1016.3 1016.3 0.0
11/10:30pm 22.2 23.9 19.4 84 1.8 W 9 13 5 7 1016.6 1016.6 0.0
11/10:00pm 22.8 25.0 19.6 82 2.0 SW 7 9 4 5 1016.4 1016.4 0.0
11/09:30pm 24.1 26.1 19.2 74 3.1 NNE 7 11 4 6 1016.1 1016.1 0.0
11/09:00pm 24.1 25.6 19.0 73 3.2 NE 9 17 5 9 1015.8 1015.8 0.0
11/08:30pm 24.0 25.9 18.9 73 3.2 ENE 7 9 4 5 1015.9 1015.9 0.0
11/08:00pm 24.2 25.2 18.6 71 3.5 E 11 15 6 8 1015.4 1015.4 0.0
11/07:30pm 24.3 24.3 18.2 68 3.8 ENE 15 20 8 11 1015.0 1015.0 0.0
11/07:00pm 24.4 24.4 18.1 68 4.0 E 15 20 8 11 1014.9 1014.9 0.0
11/06:30pm 24.6 24.3 18.3 68 4.0 ENE 17 24 9 13 1014.5 1014.5 0.0
11/06:00pm 24.8 24.9 19.2 71 3.6 ENE 17 20 9 11 1014.4 1014.4 0.0
11/05:30pm 25.4 25.7 19.5 70 3.8 ENE 17 26 9 14 1014.2 1014.2 0.0
11/05:00pm 25.4 25.8 19.8 71 3.6 ENE 17 22 9 12 1014.4 1014.4 0.0
11/04:30pm 25.6 26.2 20.2 72 3.5 ENE 17 26 9 14 1014.1 1014.1 0.0
11/04:00pm 25.2 25.1 19.6 71 3.6 ENE 19 24 10 13 1014.2 1014.2 0.0
11/03:30pm 26.1 26.1 20.2 70 3.8 NE 20 26 11 14 1014.2 1014.2 0.0
11/03:00pm 26.1 25.3 19.2 65 4.4 NE 22 30 12 16 1014.3 1014.3 0.0
11/02:30pm 26.0 25.5 19.2 66 4.4 ENE 20 30 11 16 1014.6 1014.6 0.0
11/02:00pm 26.7 26.0 19.6 65 4.6 ENE 22 30 12 16 1014.8 1014.8 0.0
11/01:30pm 27.1 27.4 20.7 68 4.2 NE 20 30 11 16 1014.9 1014.9 0.0
11/01:00pm 26.9 26.6 20.3 67 4.3 ENE 22 28 12 15 1014.9 1014.9 0.0
11/12:30pm 26.5 26.1 19.4 65 4.6 NE 20 28 11 15 1015.1 1015.1 0.0
11/12:00pm 26.8 26.2 18.9 62 5.1 NE 20 28 11 15 1015.5 1015.5 0.0
11/11:30am 26.3 25.8 18.7 63 4.9 ENE 19 24 10 13 1015.6 1015.6 0.0
11/11:00am 26.3 26.8 19.2 65 4.6 NE 15 24 8 13 1015.7 1015.7 0.0
11/10:30am 25.7 26.4 18.9 66 4.3 ENE 13 19 7 10 1015.7 1015.7 0.0
11/10:00am 26.0 28.4 18.9 65 4.5 NW 4 11 2 6 1015.8 1015.8 0.0
11/09:30am 24.6 26.3 18.5 69 3.9 NNW 7 11 4 6 1015.8 1015.8 0.0
11/09:00am 23.6 25.6 19.1 76 2.9 W 7 13 4 7 1015.9 1015.9 0.0
11/08:30am 21.8 23.5 18.4 81 2.1 WSW 7 13 4 7 1015.8 1015.8 0.0

Other Formats:

Comma delimited format used in spreadsheet applications
http://www.bom.gov.au/fwo/IDN60801/IDN60801.95748.axf

JavaScript Object Notation format (JSON) in row-major order
http://www.bom.gov.au/fwo/IDN60801/IDN60801.95748.json